Virtual Norwegian is not affiliated with Norwegian Air Shuttle in any way.
If you are looking for the real "Norwegian", or you wish to book Norwegian flights, please visit Norwegian.com


We use cookies to ensure you get the best experience on our website.   ACCEPT

ENBR - BGO - Bergen (Flesland)

General Info Alternate Airport
ICAO: ENBR Elevation: 170 ft ICAO: ENVA
IATA: BGO Country: Norway IATA: TRD
City: Bergen Charts: Log in to view charts City: Trondheim
Name: Flesland Hub: Yes Name Vaernes
General Info
ICAO: ENBR
IATA: BGO
City: Bergen
Name: Flesland
Elevation: 170 ft
Country: Norway
Charts: Log in to view charts
Hub: Yes
 
Alternate Airport
ICAO: ENVA
IATA: TRD
City: Trondheim
Name: Vaernes

Weather
221750Z 15009KT 5000 -DZRA BR FEW002 SCT005 BKN007 03/03 Q1022 TEMPO 2500 -DZRA BR BKN004 RMK WIND 1200FT 16015KT
Weather
221750Z 15009KT 5000 -DZRA BR FEW002 SCT005 BKN007 03/03 Q1022 TEMPO 2500 -DZRA BR BKN004 RMK WIND 1200FT 16015KT

Runway Info
17
Length ILS/LOC Course
2990 m 109.90 171
35
Length ILS/LOC Course
2990 m 110.50 351

NOTAMs
NOTAMs currently unavailable.
NOTAMs
NOTAMs currently unavailable

Route map
Airport
Airport (hub)